Time;durP1;ratioP1;P1;durP2;ratioP2;P2;SDS_P1;SDS_P2;PMS_P1;PMS_P2;Temp;Humidity;BMP_temperature;BMP_pressure;BME280_temperature;BME280_humidity;BME280_pressure;Samples;Min_cycle;Max_cycle;Signal;HPM_P1;HPM_P2
2022/06/05 00:01:03;;;;;;;3.00;2.40;;;;;;;17.96;69.79;98900.89;104968;1271;75492;-24
2022/06/05 00:03:57;;;;;;;5.90;3.30;;;;;;;18.34;69.91;98897.46;104953;1271;75174;-24
2022/06/05 00:06:45;;;;;;;;;;;;;;;18.35;70.82;98892.21;105149;1271;61145;-24
2022/06/05 00:09:21;;;;;;;3.70;3.10;;;;;;;18.09;70.72;98889.48;105170;1271;60943;-24
2022/06/05 00:12:09;;;;;;;3.90;3.50;;;;;;;17.67;71.57;98878.70;105149;1271;76586;-24
2022/06/05 00:14:37;;;;;;;5.90;4.20;;;;;;;17.13;74.18;98870.64;105143;1271;76125;-24
2022/06/05 00:17:11;;;;;;;6.20;3.50;;;;;;;16.88;74.64;98868.55;105158;1271;74404;-24
2022/06/05 00:19:39;;;;;;;;;;;;;;;17.19;73.82;98867.48;105097;1270;61271;-24
2022/06/05 00:22:06;;;;;;;4.70;3.30;;;;;;;17.62;72.90;98869.96;105149;1270;61526;-24
2022/06/05 00:24:34;;;;;;;4.10;3.10;;;;;;;17.63;72.13;98864.16;105071;1270;76975;-24
2022/06/05 00:27:13;;;;;;;3.80;2.90;;;;;;;17.48;72.43;98865.80;105140;1270;75155;-24
2022/06/05 00:29:55;;;;;;;4.60;3.20;;;;;;;17.18;72.55;98866.83;104797;1271;74415;-24
2022/06/05 00:32:25;;;;;;;4.20;2.80;;;;;;;16.88;73.77;98862.38;104993;1270;63121;-24
2022/06/05 00:34:53;;;;;;;5.10;2.70;;;;;;;16.62;74.80;98859.06;105111;1271;61934;-24
2022/06/05 00:38:00;;;;;;;5.20;2.70;;;;;;;16.53;74.80;98854.50;105112;1270;76554;-24
2022/06/05 00:40:34;;;;;;;3.00;2.70;;;;;;;17.09;72.88;98859.58;104834;1270;77564;-24
2022/06/05 00:43:04;;;;;;;3.60;2.70;;;;;;;16.94;73.31;98857.95;104818;1271;74326;-24
2022/06/05 00:45:31;;;;;;;3.40;3.10;;;;;;;16.58;74.53;98858.48;104837;1273;62803;-25
2022/06/05 00:47:58;;;;;;;5.30;3.60;;;;;;;16.18;75.92;98857.79;104909;1270;63534;-24
2022/06/05 00:50:28;;;;;;;3.80;2.70;;;;;;;16.05;76.56;98862.30;104988;1270;76381;-24
2022/06/05 00:52:59;;;;;;;4.50;2.60;;;;;;;16.45;75.82;98871.16;104682;1271;77034;-24
2022/06/05 00:55:34;;;;;;;4.20;3.00;;;;;;;17.00;73.35;98864.15;104676;1271;75371;-24
2022/06/05 00:58:02;;;;;;;2.80;2.60;;;;;;;16.80;74.09;98869.98;104654;1271;62993;-25
2022/06/05 01:00:32;;;;;;;3.90;3.00;;;;;;;16.36;75.33;98873.18;104753;1271;61775;-24
2022/06/05 01:02:59;;;;;;;4.70;3.30;;;;;;;16.35;75.58;98870.23;104682;1271;76374;-24
2022/06/05 01:05:27;;;;;;;3.20;2.30;;;;;;;16.18;76.62;98864.02;104913;1271;77052;-24
2022/06/05 01:07:55;;;;;;;2.70;2.50;;;;;;;16.53;75.28;98863.77;104642;1271;74317;-24
2022/06/05 01:10:23;;;;;;;3.00;2.70;;;;;;;16.88;73.91;98855.55;104801;1271;63029;-24
2022/06/05 01:13:26;;;;;;;3.60;3.00;;;;;;;16.96;73.33;98856.98;104670;1271;63077;-24
2022/06/05 01:16:11;;;;;;;3.50;2.90;;;;;;;16.71;74.92;98861.30;104798;1271;76244;-24
2022/06/05 01:18:44;;;;;;;4.20;3.40;;;;;;;16.28;76.28;98864.27;104892;1270;76993;-24
2022/06/05 01:21:20;;;;;;;5.30;2.60;;;;;;;15.96;78.21;98862.69;104734;1271;74317;-24
2022/06/05 01:23:59;;;;;;;5.10;3.00;;;;;;;16.10;77.76;98860.19;104804;1271;61788;-24
2022/06/05 01:26:40;;;;;;;3.90;3.20;;;;;;;16.06;78.02;98858.67;104793;1271;63027;-24
2022/06/05 01:29:15;;;;;;;6.10;4.00;;;;;;;15.71;79.25;98853.44;104870;1271;75449;-24
2022/06/05 01:31:45;;;;;;;4.50;2.90;;;;;;;15.52;79.99;98853.08;104806;1270;77501;-24
2022/06/05 01:34:15;;;;;;;3.60;3.00;;;;;;;15.45;80.36;98850.86;104651;1271;74518;-24
2022/06/05 01:37:00;;;;;;;3.80;2.90;;;;;;;15.81;78.94;98852.19;104732;1271;62044;-24
2022/06/05 01:39:36;;;;;;;4.80;3.40;;;;;;;15.65;79.85;98850.49;104516;1271;62785;-24
2022/06/05 01:42:08;;;;;;;5.30;3.40;;;;;;;15.58;79.86;98847.94;104730;1271;75341;-24
2022/06/05 01:44:38;;;;;;;3.90;2.70;;;;;;;15.48;80.26;98847.80;104639;1271;76948;-24
2022/06/05 01:47:21;;;;;;;3.60;3.00;;;;;;;15.72;79.51;98848.38;104660;1271;75811;-24
2022/06/05 01:49:57;;;;;;;4.40;2.90;;;;;;;15.53;79.83;98844.49;104779;1272;63149;-24
2022/06/05 01:52:47;;;;;;;4.40;2.90;;;;;;;15.69;79.79;98842.56;104499;1271;63154;-24
2022/06/05 01:55:37;;;;;;;5.50;3.10;;;;;;;15.54;80.12;98842.45;104847;1271;76624;-24
2022/06/05 01:58:06;;;;;;;3.20;2.60;;;;;;;15.50;80.58;98842.98;104998;1273;77310;-24
2022/06/05 02:00:33;;;;;;;5.50;2.60;;;;;;;15.70;79.43;98843.36;104829;1271;75415;-24
2022/06/05 02:03:22;;;;;;;7.80;3.00;;;;;;;15.90;78.83;98845.86;104962;1270;61765;-24
2022/06/05 02:05:56;;;;;;;4.50;3.10;;;;;;;15.76;79.10;98850.84;104725;1270;63051;-24
2022/06/05 02:08:38;;;;;;;3.60;3.30;;;;;;;15.48;80.78;98849.41;104630;1271;75721;-24
2022/06/05 02:11:21;;;;;;;3.40;3.00;;;;;;;15.43;81.16;98850.77;104771;1271;76265;-24
2022/06/05 02:13:50;;;;;;;;;;;;;;;15.93;79.53;98853.05;104638;1273;75397;-24
2022/06/05 02:16:17;;;;;;;4.80;2.60;;;;;;;16.04;79.06;98854.36;104715;1271;61808;-24
2022/06/05 02:18:44;;;;;;;6.30;3.50;;;;;;;15.80;80.37;98857.91;104678;1271;61914;-23
2022/06/05 02:21:12;;;;;;;4.10;3.60;;;;;;;15.47;82.08;98860.48;104619;1272;76424;-22
2022/06/05 02:23:40;;;;;;;3.00;2.70;;;;;;;14.98;84.14;98862.21;104850;1271;77008;-22
2022/06/05 02:26:09;;;;;;;4.70;3.20;;;;;;;15.14;84.11;98869.13;104822;1271;74551;-22
2022/06/05 02:28:37;;;;;;;3.70;3.30;;;;;;;15.28;83.08;98869.20;104795;1271;63350;-22
2022/06/05 02:31:07;;;;;;;3.70;3.40;;;;;;;15.30;83.66;98873.12;104645;1271;61706;-22
2022/06/05 02:33:48;;;;;;;8.50;3.00;;;;;;;14.92;84.74;98870.84;105038;1270;76638;-22
2022/06/05 02:36:53;;;;;;;4.30;2.70;;;;;;;15.06;85.06;98873.65;104768;1271;75232;-22
2022/06/05 02:39:30;;;;;;;3.90;2.80;;;;;;;15.42;83.03;98880.71;105035;1270;74618;-22
2022/06/05 02:42:13;;;;;;;4.10;3.50;;;;;;;15.48;82.64;98889.55;104925;1271;61118;-22
2022/06/05 02:44:42;;;;;;;4.50;3.20;;;;;;;15.37;82.59;98893.02;104665;1270;62753;-23
2022/06/05 02:47:17;;;;;;;3.00;2.00;;;;;;;15.25;83.35;98898.63;104744;1271;76387;-22
2022/06/05 02:50:06;;;;;;;3.60;2.70;;;;;;;15.75;82.35;98895.50;104670;1270;76926;-22
2022/06/05 02:52:33;;;;;;;5.60;2.90;;;;;;;16.06;80.47;98895.09;105141;1270;75431;-23
2022/06/05 02:55:13;;;;;;;4.80;3.60;;;;;;;15.57;82.12;98891.57;104779;1270;62031;-22
2022/06/05 02:57:41;;;;;;;4.50;3.90;;;;;;;15.11;84.19;98891.80;104663;1271;61809;-22
2022/06/05 03:00:15;;;;;;;4.20;2.70;;;;;;;14.59;86.77;98890.37;104699;1271;75561;-22
2022/06/05 03:05:41;;;;;;;5.70;3.60;;;;;;;14.87;85.52;98891.45;104615;1271;74527;-22
2022/06/05 03:08:12;;;;;;;3.90;3.50;;;;;;;14.88;85.74;98895.84;104730;1271;63038;-22
2022/06/05 03:10:40;;;;;;;2.80;2.50;;;;;;;14.72;86.41;98893.48;104684;1270;62063;-21
2022/06/05 03:13:08;;;;;;;3.50;3.20;;;;;;;14.59;87.06;98890.20;104781;1271;76652;-21
2022/06/05 03:15:35;;;;;;;4.60;3.30;;;;;;;14.89;85.90;98891.92;104750;1271;75763;-22
2022/06/05 03:18:03;;;;;;;6.10;4.10;;;;;;;14.78;86.50;98890.08;104749;1271;75375;-22
2022/06/05 03:20:30;;;;;;;6.00;3.30;;;;;;;14.72;86.71;98888.73;104763;1271;62021;-21
2022/06/05 03:22:57;;;;;;;3.40;3.10;;;;;;;14.69;87.13;98888.64;104925;1270;62151;-22
2022/06/05 03:25:25;;;;;;;5.60;3.90;;;;;;;14.88;86.03;98889.75;104807;1271;75578;-22
2022/06/05 03:27:53;;;;;;;6.00;3.90;;;;;;;14.89;86.02;98891.02;104864;1271;75927;-22
2022/06/05 03:30:21;;;;;;;5.00;4.40;;;;;;;14.61;87.03;98893.65;104663;1271;75187;-21
2022/06/05 03:32:48;;;;;;;3.80;3.20;;;;;;;14.43;88.41;98895.63;104802;1270;63403;-21
2022/06/05 03:35:16;;;;;;;5.80;4.70;;;;;;;14.73;86.87;98898.92;104731;1270;61379;-21
2022/06/05 03:37:43;;;;;;;5.10;4.10;;;;;;;14.75;86.87;98902.91;104792;1271;74301;-21
2022/06/05 03:40:12;;;;;;;3.70;3.30;;;;;;;14.93;86.13;98903.99;104803;1270;76752;-21
2022/06/05 03:42:39;;;;;;;4.10;3.70;;;;;;;14.91;85.83;98900.70;104814;1271;75780;-21
2022/06/05 03:45:14;;;;;;;4.40;2.00;;;;;;;14.99;85.48;98896.36;104726;1271;63488;-21
2022/06/05 03:47:41;;;;;;;2.80;2.50;;;;;;;15.40;84.17;98899.50;104792;1270;63091;-22
2022/06/05 03:50:09;;;;;;;4.50;3.70;;;;;;;15.66;82.49;98896.10;104761;1270;76492;-22
2022/06/05 03:52:37;;;;;;;5.80;4.10;;;;;;;15.35;83.76;98892.70;104700;1270;76014;-22
2022/06/05 03:55:04;;;;;;;4.40;4.00;;;;;;;15.16;84.53;98894.63;104860;1271;75772;-21
2022/06/05 03:57:32;;;;;;;4.30;2.90;;;;;;;14.63;86.42;98895.41;104653;1270;63118;-21
2022/06/05 04:00:00;;;;;;;3.90;3.50;;;;;;;14.66;87.23;98895.41;104639;1271;62814;-21
2022/06/05 04:02:27;;;;;;;4.20;3.80;;;;;;;14.89;86.26;98896.83;104814;1270;75558;-21
2022/06/05 04:04:55;;;;;;;5.10;4.30;;;;;;;14.79;86.66;98893.83;105001;1269;77024;-21
2022/06/05 04:07:23;;;;;;;6.20;4.50;;;;;;;14.67;87.15;98897.15;105064;1272;75340;-21
2022/06/05 04:09:50;;;;;;;6.10;2.80;;;;;;;14.66;87.23;98897.70;105170;1270;63350;-21
2022/06/05 04:12:18;;;;;;;4.10;3.70;;;;;;;15.14;85.79;98899.95;105128;1271;61028;-21
2022/06/05 04:14:45;;;;;;;6.30;3.90;;;;;;;14.87;85.58;98901.88;105090;1270;75433;-21
2022/06/05 04:17:12;;;;;;;4.80;4.20;;;;;;;14.88;86.22;98908.64;104794;1271;77104;-21
2022/06/05 04:19:40;;;;;;;4.70;4.20;;;;;;;14.78;86.35;98910.71;104765;1271;74396;-21
2022/06/05 04:22:07;;;;;;;5.90;3.10;;;;;;;14.75;87.25;98910.27;104686;1271;64865;-21
2022/06/05 04:24:34;;;;;;;5.50;3.90;;;;;;;15.19;85.00;98907.77;104884;1270;61015;-21
2022/06/05 04:27:02;;;;;;;5.00;3.60;;;;;;;15.62;83.50;98906.70;104768;1270;76589;-21
2022/06/05 04:29:32;;;;;;;5.00;3.50;;;;;;;15.51;82.88;98907.08;104738;1270;76919;-21
2022/06/05 04:32:00;;;;;;;4.80;3.90;;;;;;;15.52;83.05;98908.81;104717;1271;74355;-21
2022/06/05 04:34:27;;;;;;;3.90;3.50;;;;;;;15.19;84.42;98914.19;104858;1268;61868;-21
2022/06/05 04:36:54;;;;;;;5.10;3.10;;;;;;;15.06;84.56;98916.83;104965;1268;61750;-21
2022/06/05 04:39:22;;;;;;;5.40;3.20;;;;;;;15.46;83.80;98913.71;104810;1268;76702;-22
2022/06/05 04:41:50;;;;;;;5.30;3.70;;;;;;;15.44;82.57;98916.00;104859;1268;76454;-21
2022/06/05 04:44:18;;;;;;;4.80;4.40;;;;;;;15.21;84.28;98915.61;104886;1268;75391;-21
2022/06/05 04:46:45;;;;;;;4.10;3.80;;;;;;;14.94;85.65;98923.56;104915;1268;63056;-21
2022/06/05 04:49:13;;;;;;;4.10;3.30;;;;;;;14.94;85.54;98927.31;104862;1268;62991;-22
2022/06/05 04:51:41;;;;;;;8.40;4.90;;;;;;;15.14;84.96;98931.41;104465;1271;75287;-22
2022/06/05 04:54:10;;;;;;;10.30;5.50;;;;;;;15.11;84.83;98927.02;105137;1268;76021;-22
2022/06/05 04:56:37;;;;;;;5.20;4.40;;;;;;;15.17;84.39;98926.70;104976;1268;75125;-22
2022/06/05 04:59:05;;;;;;;5.60;4.30;;;;;;;15.03;84.77;98918.81;104777;1271;61785;-21
2022/06/05 05:01:35;;;;;;;4.20;3.30;;;;;;;14.68;86.11;98918.35;104756;1270;62013;-22
2022/06/05 05:04:08;;;;;;;5.40;3.90;;;;;;;14.79;86.18;98926.65;104765;1268;76745;-22
2022/06/05 05:06:36;;;;;;;5.30;4.30;;;;;;;14.56;86.72;98929.61;104469;1268;76734;-21
2022/06/05 05:09:03;;;;;;;4.20;3.80;;;;;;;14.49;88.01;98932.21;104998;1268;74213;-21
2022/06/05 05:11:31;;;;;;;3.90;2.60;;;;;;;14.56;87.56;98934.66;105014;1270;61994;-21
2022/06/05 05:13:58;;;;;;;5.00;2.90;;;;;;;14.75;86.61;98932.09;105150;1268;62314;-21
2022/06/05 05:16:26;;;;;;;5.10;3.80;;;;;;;14.83;85.55;98928.05;105055;1271;75484;-22
2022/06/05 05:18:54;;;;;;;5.50;4.30;;;;;;;15.09;84.98;98921.95;104814;1268;75744;-22
2022/06/05 05:21:23;;;;;;;4.70;4.20;;;;;;;15.07;84.77;98920.59;104800;1268;73566;-22
2022/06/05 05:23:50;;;;;;;3.80;3.20;;;;;;;14.93;85.32;98925.28;104744;1268;63821;-21
2022/06/05 05:26:22;;;;;;;8.00;3.80;;;;;;;15.25;84.98;98928.34;104802;1268;61388;-22
2022/06/05 05:28:50;;;;;;;5.10;3.90;;;;;;;15.21;83.72;98930.71;104691;1271;74998;-22
2022/06/05 05:31:26;;;;;;;5.00;4.50;;;;;;;15.24;83.51;98935.94;104655;1270;75718;-22
2022/06/05 05:33:54;;;;;;;4.30;3.90;;;;;;;14.62;85.86;98940.78;105012;1271;75431;-21
2022/06/05 05:36:22;;;;;;;2.60;2.40;;;;;;;14.68;86.04;98946.00;104951;1270;64484;-21
2022/06/05 05:44:35;;;;;;;6.40;5.20;;;;;;;14.73;85.19;98964.77;105083;1271;77031;-21
2022/06/05 05:47:04;;;;;;;8.50;6.50;;;;;;;14.58;86.31;98973.14;105106;1271;74721;-21
2022/06/05 05:49:31;;;;;;;3.80;3.40;;;;;;;14.43;87.78;98978.76;104736;1271;64688;-21
2022/06/05 05:51:58;;;;;;;4.40;3.60;;;;;;;14.97;85.22;98978.72;104787;1271;62045;-21
2022/06/05 05:54:25;;;;;;;4.10;3.70;;;;;;;15.18;83.57;98972.94;104798;1271;75293;-21
2022/06/05 05:56:52;;;;;;;4.10;3.20;;;;;;;15.08;83.94;98973.94;105028;1271;76841;-21
2022/06/05 05:59:20;;;;;;;4.00;3.50;;;;;;;14.61;85.48;98977.23;104863;1270;74277;-21
2022/06/05 06:01:47;;;;;;;3.20;2.50;;;;;;;14.62;86.49;98974.81;104966;1270;63635;-21
2022/06/05 06:04:15;;;;;;;4.60;3.60;;;;;;;15.03;84.59;98980.23;104903;1271;61686;-22
2022/06/05 06:06:43;;;;;;;4.20;3.80;;;;;;;15.20;83.44;98977.83;104812;1270;75497;-21
2022/06/05 06:09:11;;;;;;;5.00;3.60;;;;;;;14.77;85.06;98974.90;104727;1270;77085;-22
2022/06/05 06:11:38;;;;;;;3.80;3.00;;;;;;;14.76;85.02;98972.59;104771;1271;74317;-21
2022/06/05 06:14:05;;;;;;;6.50;4.00;;;;;;;14.77;84.78;98969.35;104654;1271;63381;-21
2022/06/05 06:16:33;;;;;;;3.90;3.20;;;;;;;14.98;83.76;98968.63;104757;1271;61701;-21
2022/06/05 06:19:00;;;;;;;3.80;2.90;;;;;;;15.16;83.53;98968.20;104822;1271;76649;-22
2022/06/05 06:21:28;;;;;;;3.90;3.20;;;;;;;15.02;83.12;98963.71;104858;1270;76969;-22
2022/06/05 06:23:59;;;;;;;2.20;2.00;;;;;;;14.95;83.48;98961.03;104762;1270;75415;-21
2022/06/05 06:26:27;;;;;;;3.00;2.70;;;;;;;15.28;82.83;98957.05;104681;1270;61793;-21
2022/06/05 06:28:54;;;;;;;3.00;2.70;;;;;;;15.54;81.43;98952.80;104653;1270;62750;-21
2022/06/05 06:31:22;;;;;;;4.80;2.80;;;;;;;15.53;81.63;98952.90;104964;1270;75049;-21
2022/06/05 06:33:50;;;;;;;4.30;3.00;;;;;;;15.48;81.78;98947.86;104903;1270;77080;-21
2022/06/05 06:36:18;;;;;;;4.70;2.60;;;;;;;15.30;81.96;98941.81;104815;1271;74496;-22
2022/06/05 06:39:05;;;;;;;6.00;3.50;;;;;;;15.59;81.50;98938.15;104647;1271;62110;-21
2022/06/05 06:41:32;;;;;;;5.80;3.50;;;;;;;15.67;80.75;98937.36;104855;1271;61616;-21
2022/06/05 06:44:03;;;;;;;3.00;2.40;;;;;;;15.54;82.18;98941.09;104870;1270;375539;-21
2022/06/05 06:46:31;;;;;;;2.90;2.10;;;;;;;15.32;82.86;98947.02;105170;1270;77051;-21
2022/06/05 06:48:59;;;;;;;2.10;1.70;;;;;;;15.28;83.25;98956.55;105040;1271;74047;-21
2022/06/05 06:51:26;;;;;;;4.40;2.00;;;;;;;15.62;82.35;98955.19;104996;1270;63120;-21
2022/06/05 06:53:53;;;;;;;3.50;2.10;;;;;;;15.76;82.05;98957.36;104816;1270;61823;-21
2022/06/05 06:56:26;;;;;;;1.70;1.60;;;;;;;15.67;81.82;98952.35;104814;1270;76534;-21
2022/06/05 06:58:54;;;;;;;2.50;1.90;;;;;;;15.46;82.79;98956.73;104645;1271;77183;-21
2022/06/05 07:01:22;;;;;;;2.40;1.90;;;;;;;15.79;81.63;98965.77;105002;1271;75182;-21
2022/06/05 07:03:49;;;;;;;2.20;1.90;;;;;;;15.70;81.88;98979.85;104929;1270;63185;-21
2022/06/05 07:06:17;;;;;;;2.80;2.00;;;;;;;15.33;83.33;98994.16;104757;1271;63289;-21
2022/06/05 07:08:44;;;;;;;5.10;1.90;;;;;;;15.42;82.95;98996.92;104948;1270;76552;-21
2022/06/05 07:11:13;;;;;;;1.70;1.50;;;;;;;15.30;84.16;99000.60;104891;1271;77132;-21
2022/06/05 07:14:00;;;;;;;1.80;1.60;;;;;;;15.74;82.63;98997.68;104383;1273;75213;-21
2022/06/05 07:16:27;;;;;;;1.80;1.70;;;;;;;16.19;80.94;99005.84;104324;1273;61990;-22
2022/06/05 07:18:55;;;;;;;1.90;1.80;;;;;;;16.03;80.47;99004.16;104585;1274;63064;-22
2022/06/05 07:21:24;;;;;;;1.90;1.70;;;;;;;15.87;81.01;99006.83;104701;1273;75402;-22
2022/06/05 07:23:54;;;;;;;2.10;1.90;;;;;;;15.45;82.94;99009.36;104643;1274;77014;-22
2022/06/05 07:26:22;;;;;;;1.50;1.40;;;;;;;15.38;83.46;99010.44;104486;1273;75459;-22
2022/06/05 07:28:50;;;;;;;5.10;3.20;;;;;;;15.93;82.07;99012.35;104576;1274;63136;-22
2022/06/05 07:31:18;;;;;;;3.30;1.60;;;;;;;16.28;79.91;99018.20;104669;1271;61983;-21
2022/06/05 07:33:45;;;;;;;2.20;1.70;;;;;;;16.13;79.71;99016.90;104806;1271;76630;-22
2022/06/05 07:36:14;;;;;;;4.20;2.00;;;;;;;16.03;79.74;99015.00;104791;1271;75996;-21
2022/06/05 07:38:42;;;;;;;1.20;1.10;;;;;;;15.89;80.68;99010.32;104724;1271;74488;-21
2022/06/05 07:41:18;;;;;;;1.30;1.20;;;;;;;16.23;80.07;99013.92;104962;1270;63184;-22
2022/06/05 07:43:45;;;;;;;3.80;1.10;;;;;;;16.57;78.58;99021.42;104828;1270;63051;-22
2022/06/05 07:46:13;;;;;;;1.20;1.00;;;;;;;16.53;78.72;99018.16;104760;1271;75336;-21
2022/06/05 07:48:40;;;;;;;1.30;1.20;;;;;;;16.38;78.87;99012.09;104790;1271;75816;-21
2022/06/05 07:56:42;;;;;;;1.30;1.00;;;;;;;17.11;78.13;99016.42;104872;1271;61617;-22
2022/06/05 07:59:10;;;;;;;1.50;1.40;;;;;;;17.24;78.26;99012.33;104759;1270;76593;-22
2022/06/05 08:01:57;;;;;;;3.10;1.20;;;;;;;17.20;77.33;99011.61;104890;1270;76993;-22
2022/06/05 08:04:28;;;;;;;1.50;1.30;;;;;;;17.08;77.25;99012.45;104785;1271;75402;-22
2022/06/05 08:06:57;;;;;;;1.50;1.00;;;;;;;16.89;78.12;99014.10;104667;1270;63398;-21
2022/06/05 08:10:14;;;;;;;2.30;1.90;;;;;;;17.53;76.74;99013.13;101908;1307;601112;-21
2022/06/05 08:12:42;;;;;;;1.50;1.40;;;;;;;17.80;75.00;99013.35;104410;1282;61969;-21
2022/06/05 08:15:12;;;;;;;1.20;1.00;;;;;;;17.73;73.99;99019.34;104439;1281;62107;-21
2022/06/05 08:17:39;;;;;;;1.30;1.20;;;;;;;17.45;74.71;99017.16;104246;1285;75709;-22
2022/06/05 08:20:08;;;;;;;1.30;1.20;;;;;;;17.24;75.91;99019.30;104468;1281;75946;-21
2022/06/05 08:22:35;;;;;;;1.20;1.10;;;;;;;17.13;75.19;99020.04;104297;1281;75385;-21
2022/06/05 08:25:03;;;;;;;0.70;0.70;;;;;;;17.08;78.05;99021.45;103751;1281;406592;-21
2022/06/05 08:27:30;;;;;;;1.90;1.50;;;;;;;17.66;75.45;99024.14;103929;1281;61248;-21
2022/06/05 08:29:58;;;;;;;2.10;1.50;;;;;;;18.11;73.25;99019.85;104237;1283;75016;-21
2022/06/05 08:32:26;;;;;;;1.80;1.60;;;;;;;18.38;75.50;99024.45;104415;1281;76914;-21
2022/06/05 08:34:54;;;;;;;1.60;1.30;;;;;;;18.06;72.30;99024.64;103936;1278;75543;-21
2022/06/05 08:43:19;;;;;;;2.60;1.70;;;;;;;18.03;73.81;99035.70;104171;1281;74753;-21
2022/06/05 08:46:08;;;;;;;2.80;1.30;;;;;;;17.90;74.30;99043.14;104262;1281;76849;-21
2022/06/05 08:48:38;;;;;;;2.20;1.10;;;;;;;18.65;74.25;99042.09;104300;1278;75466;-21
2022/06/05 08:51:47;;;;;;;2.50;1.40;;;;;;;19.18;71.03;99043.36;104102;1281;61747;-21
2022/06/05 08:54:24;;;;;;;1.40;1.30;;;;;;;19.10;70.52;99051.33;104146;1281;63159;-20
2022/06/05 08:56:59;;;;;;;1.80;1.40;;;;;;;18.50;71.24;99046.10;104182;1281;74707;-20
2022/06/05 08:59:42;;;;;;;1.80;1.60;;;;;;;18.08;72.70;99053.27;104119;1281;77028;-22
2022/06/05 09:02:09;;;;;;;2.30;1.90;;;;;;;17.66;75.24;99055.41;103734;1281;75449;-24
2022/06/05 09:05:01;;;;;;;2.70;1.50;;;;;;;17.66;76.82;99060.73;104372;1277;64696;-23
2022/06/05 09:07:32;;;;;;;1.50;1.40;;;;;;;17.94;73.44;99058.13;104388;1278;62745;-23
2022/06/05 09:10:02;;;;;;;2.90;1.60;;;;;;;18.19;73.28;99060.41;104261;1278;74363;-23
2022/06/05 09:12:37;;;;;;;2.40;2.00;;;;;;;17.79;74.94;99064.64;104231;1278;75623;-23
2022/06/05 09:15:27;;;;;;;2.30;1.70;;;;;;;17.62;75.35;99063.91;104243;1281;75372;-23
2022/06/05 09:17:59;;;;;;;2.20;2.00;;;;;;;17.24;76.02;99070.19;104481;1278;62028;-23
2022/06/05 09:20:41;;;;;;;3.50;2.10;;;;;;;16.89;76.21;99071.30;104192;1278;62768;-24
2022/06/05 09:23:40;;;;;;;1.70;1.50;;;;;;;16.91;77.38;99071.07;104258;1281;74448;-24
2022/06/05 09:26:17;;;;;;;3.30;1.70;;;;;;;16.96;76.07;99071.25;104284;1278;77105;-24
2022/06/05 09:28:55;;;;;;;1.70;1.60;;;;;;;17.18;76.22;99074.49;104484;1278;75515;-24
2022/06/05 09:31:38;;;;;;;3.10;2.00;;;;;;;17.47;76.47;99081.62;104328;1278;63257;-24
2022/06/05 09:34:11;;;;;;;2.30;2.10;;;;;;;17.33;76.18;99083.81;104520;1281;61922;-24
2022/06/05 09:36:39;;;;;;;3.10;1.90;;;;;;;17.11;76.59;99084.55;104415;1281;75791;-22
2022/06/05 09:39:22;;;;;;;4.60;1.60;;;;;;;16.73;77.89;99087.21;104323;1278;76168;-23
2022/06/05 09:41:57;;;;;;;2.40;2.10;;;;;;;16.59;78.73;99085.82;104307;1277;73945;-23
2022/06/05 09:44:46;;;;;;;2.50;2.20;;;;;;;17.16;77.80;99090.70;104245;1278;61742;-20
2022/06/05 09:47:45;;;;;;;3.10;2.20;;;;;;;17.20;78.47;99089.92;104537;1277;61899;-20
2022/06/05 09:50:25;;;;;;;3.80;3.30;;;;;;;16.32;80.56;99091.41;104477;1277;75007;-23
2022/06/05 09:52:52;;;;;;;4.20;2.60;;;;;;;15.56;83.16;99093.64;104430;1277;76977;-23
2022/06/05 09:55:21;;;;;;;3.90;3.30;;;;;;;15.47;82.88;99091.52;104567;1278;75415;-23
2022/06/05 10:00:40;;;;;;;3.80;2.80;;;;;;;15.54;83.43;99105.00;104288;1275;61671;-23
2022/06/05 10:03:15;;;;;;;2.80;2.40;;;;;;;15.28;83.53;99109.42;104261;1278;74675;-23
2022/06/05 10:05:45;;;;;;;3.90;2.90;;;;;;;15.38;84.47;99107.67;104208;1281;76016;-23
2022/06/05 10:08:28;;;;;;;3.10;2.80;;;;;;;15.61;82.87;99104.33;104278;1281;75860;-24
2022/06/05 10:10:58;;;;;;;3.80;3.40;;;;;;;15.56;83.05;99110.83;104255;1278;61992;-23
2022/06/05 10:13:50;;;;;;;4.00;3.20;;;;;;;15.65;82.64;99113.50;104158;1278;63412;-23
2022/06/05 10:16:38;;;;;;;3.30;3.00;;;;;;;15.75;82.36;99117.59;104440;1281;74683;-24
2022/06/05 10:19:13;;;;;;;4.10;3.30;;;;;;;16.10;80.97;99116.89;104234;1277;77013;-23
2022/06/05 10:21:43;;;;;;;3.80;3.50;;;;;;;16.11;79.90;99120.10;104333;1279;75560;-23
2022/06/05 10:24:20;;;;;;;4.70;3.30;;;;;;;15.86;79.87;99114.79;104456;1278;62254;-23
2022/06/05 10:26:58;;;;;;;5.80;2.80;;;;;;;15.62;81.32;99117.47;104375;1277;63253;-24
2022/06/05 10:29:37;;;;;;;4.90;2.50;;;;;;;15.91;79.57;99121.08;104293;1278;75763;-24
2022/06/05 10:32:49;;;;;;;3.90;3.10;;;;;;;16.16;78.68;99120.10;104510;1278;76695;-24
2022/06/05 10:35:24;;;;;;;3.40;2.70;;;;;;;16.36;78.41;99119.98;104310;1278;74350;-24
2022/06/05 10:38:20;;;;;;;3.90;3.50;;;;;;;16.95;76.59;99119.77;104310;1278;63073;-24
2022/06/05 10:40:55;;;;;;;4.10;2.90;;;;;;;17.18;75.86;99124.47;104462;1281;62835;-24
2022/06/05 10:43:26;;;;;;;2.30;2.10;;;;;;;17.22;75.20;99121.88;104207;1278;74502;-24
2022/06/05 10:45:56;;;;;;;6.00;2.50;;;;;;;17.92;73.64;99122.14;104206;1281;77003;-24
2022/06/05 10:48:36;;;;;;;5.30;3.10;;;;;;;18.15;71.90;99122.20;104374;1278;75416;-24
2022/06/05 10:51:25;;;;;;;5.80;3.10;;;;;;;17.33;73.95;99126.59;104542;1277;62091;-23
2022/06/05 10:54:14;;;;;;;4.00;2.90;;;;;;;17.47;73.92;99130.87;104597;1277;62084;-24
2022/06/05 10:56:45;;;;;;;3.00;2.60;;;;;;;17.27;74.38;99129.48;104524;1278;74522;-24
2022/06/05 10:59:20;;;;;;;2.60;2.40;;;;;;;17.44;74.42;99131.73;104333;1278;75668;-24
2022/06/05 11:01:57;;;;;;;2.90;2.00;;;;;;;17.08;75.06;99130.52;104251;1277;75422;-24
2022/06/05 11:04:27;;;;;;;2.40;2.20;;;;;;;17.60;73.90;99128.36;104296;1280;62083;-24
2022/06/05 11:07:13;;;;;;;3.30;2.70;;;;;;;17.81;72.63;99129.95;104612;1278;62885;-23
2022/06/05 11:09:47;;;;;;;3.50;2.30;;;;;;;17.33;74.53;99125.39;104508;1281;75825;-24
2022/06/05 11:15:39;;;;;;;3.00;2.70;;;;;;;17.57;75.60;99125.71;104563;1277;75124;-24
2022/06/05 11:18:38;;;;;;;3.20;2.70;;;;;;;17.14;76.13;99120.55;104271;1281;63736;-24
2022/06/05 11:21:06;;;;;;;2.30;2.10;;;;;;;17.88;73.36;99124.95;104217;1281;62999;-24
2022/06/05 11:23:44;;;;;;;2.60;2.40;;;;;;;17.41;73.59;99124.48;104324;1278;75897;-24
2022/06/05 11:26:21;;;;;;;3.10;2.80;;;;;;;17.40;74.22;99122.52;104301;1281;75933;-24
2022/06/05 11:28:52;;;;;;;2.90;2.50;;;;;;;17.62;74.39;99123.96;104407;1281;74160;-24
2022/06/05 11:31:25;;;;;;;6.10;2.80;;;;;;;17.65;73.94;99119.80;104223;1281;63072;-24
2022/06/05 11:33:57;;;;;;;2.20;1.70;;;;;;;18.04;73.64;99116.77;104307;1281;62768;-24
2022/06/05 11:36:43;;;;;;;4.50;2.40;;;;;;;18.65;70.73;99114.34;104308;1281;74724;-24
2022/06/05 11:39:32;;;;;;;3.50;2.30;;;;;;;18.51;70.65;99117.64;104510;1281;77021;-24
2022/06/05 11:42:16;;;;;;;4.40;2.20;;;;;;;18.61;69.72;99118.16;104668;1275;75379;-24
2022/06/05 11:44:52;;;;;;;3.00;2.60;;;;;;;18.05;70.52;99120.99;104571;1274;61899;-24
2022/06/05 11:47:50;;;;;;;3.10;2.80;;;;;;;17.73;72.12;99118.59;104577;1274;63134;-24
2022/06/05 11:50:45;;;;;;;3.00;2.50;;;;;;;17.86;73.95;99118.77;104704;1274;74762;-24
2022/06/05 11:53:23;;;;;;;2.60;2.40;;;;;;;18.09;72.58;99119.52;104630;1275;75893;-24
2022/06/05 11:56:26;;;;;;;2.30;2.10;;;;;;;18.08;71.94;99119.11;104641;1274;74093;-24
2022/06/05 11:58:59;;;;;;;3.20;2.40;;;;;;;17.56;73.30;99114.66;104104;1274;63189;-24
2022/06/05 12:01:28;;;;;;;2.40;2.10;;;;;;;17.96;72.53;99114.13;104663;1275;63215;-24
2022/06/05 12:03:55;;;;;;;3.90;2.50;;;;;;;18.26;71.71;99113.28;104643;1277;76063;-24
2022/06/05 12:06:39;;;;;;;3.30;3.00;;;;;;;18.27;71.20;99118.08;105046;1275;76987;-25
2022/06/05 12:09:13;;;;;;;3.80;2.90;;;;;;;17.76;73.55;99116.17;104856;1274;74360;-25
2022/06/05 12:12:13;;;;;;;3.20;2.80;;;;;;;17.77;73.90;99117.58;104600;1275;62412;-25
2022/06/05 12:14:49;;;;;;;2.30;1.90;;;;;;;18.20;73.16;99114.30;104959;1274;63094;-24
2022/06/05 12:17:20;;;;;;;3.80;2.70;;;;;;;18.25;70.81;99111.63;104706;1274;74891;-25
2022/06/05 12:19:47;;;;;;;2.40;2.20;;;;;;;18.45;71.43;99109.17;104679;1274;76929;-24
2022/06/05 12:22:33;;;;;;;2.30;2.10;;;;;;;19.13;69.10;99108.54;104726;1274;74229;-24